Time;durP1;ratioP1;P1;durP2;ratioP2;P2;SDS_P1;SDS_P2;PMS_P1;PMS_P2;Temp;Humidity;BMP_temperature;BMP_pressure;BME280_temperature;BME280_humidity;BME280_pressure;Samples;Min_cycle;Max_cycle;Signal;HPM_P1;HPM_P2
2023/05/03 00:36:44;;;;;;;2.27;1.67;;;5.70;1.00;;;;;;6106099;22;2123471;-90
2023/05/03 00:39:10;;;;;;;3.93;1.80;;;5.50;1.00;;;;;;6158069;23;20151;-88
2023/05/03 00:41:36;;;;;;;3.30;1.83;;;5.60;1.00;;;;;;6158600;23;20201;-88
2023/05/03 00:44:01;;;;;;;4.13;1.70;;;5.70;1.00;;;;;;6158681;23;20504;-88
2023/05/03 00:46:28;;;;;;;4.63;2.07;;;5.60;1.00;;;;;;6158590;23;20163;-88
2023/05/03 00:48:53;;;;;;;2.53;1.87;;;5.60;1.00;;;;;;6158495;23;20179;-88
2023/05/03 00:51:20;;;;;;;4.63;2.20;;;5.60;1.00;;;;;;6158498;23;20516;-88
2023/05/03 00:53:46;;;;;;;4.40;2.10;;;5.70;1.00;;;;;;6158633;23;20159;-88
2023/05/03 00:56:16;;;;;;;2.07;1.73;;;5.60;1.00;;;;;;6158563;23;20294;-88
2023/05/03 00:58:41;;;;;;;4.40;1.97;;;5.60;1.00;;;;;;6158715;23;20166;-88
2023/05/03 01:01:07;;;;;;;2.88;1.70;;;5.60;1.00;;;;;;6158430;23;20387;-88
2023/05/03 01:03:35;;;;;;;2.63;1.83;;;5.60;1.00;;;;;;6158773;23;20503;-88
2023/05/03 01:06:36;;;;;;;2.07;1.87;;;5.60;1.00;;;;;;6184896;23;20607;-89
2023/05/03 01:09:43;;;;;;;2.73;1.63;;;5.60;1.00;;;;;;6158274;23;20261;-89
2023/05/03 01:12:30;;;;;;;2.37;1.50;;;5.50;1.00;;;;;;6078463;23;20274;-88
2023/05/03 01:15:09;;;;;;;2.67;1.83;;;5.50;1.00;;;;;;6158432;23;20198;-88
2023/05/03 01:17:38;;;;;;;2.80;2.00;;;5.50;1.00;;;;;;6158718;23;20147;-88
2023/05/03 01:20:10;;;;;;;2.73;1.70;;;5.50;1.00;;;;;;6158339;23;20213;-88
2023/05/03 01:22:38;;;;;;;4.80;1.80;;;5.40;1.00;;;;;;6158755;23;20186;-90
2023/05/03 01:25:09;;;;;;;2.00;1.77;;;5.40;1.00;;;;;;6158266;23;20163;-89
2023/05/03 01:27:35;;;;;;;3.50;1.80;;;5.30;1.00;;;;;;6158566;23;20197;-88
2023/05/03 01:30:06;;;;;;;2.57;1.70;;;5.30;1.00;;;;;;6158410;23;20183;-88
2023/05/03 01:32:57;;;;;;;3.57;1.63;;;5.30;1.00;;;;;;6158247;23;20524;-89
2023/05/03 01:35:34;;;;;;;3.30;1.80;;;5.30;1.00;;;;;;6158389;23;20155;-88
2023/05/03 01:38:01;;;;;;;2.73;1.73;;;5.40;1.00;;;;;;6158795;23;20161;-90
2023/05/03 01:40:29;;;;;;;2.97;1.80;;;5.30;1.00;;;;;;6158300;23;20155;-88
2023/05/03 01:42:56;;;;;;;2.77;1.77;;;5.00;1.00;;;;;;6158285;23;20202;-88
2023/05/03 01:45:22;;;;;;;4.43;2.00;;;5.10;1.00;;;;;;6158271;23;20155;-88
2023/05/03 01:47:47;;;;;;;2.83;1.77;;;4.70;1.00;;;;;;6158419;23;20163;-89
2023/05/03 01:50:13;;;;;;;2.40;1.90;;;4.30;1.00;;;;;;6184786;23;20213;-89
2023/05/03 01:52:39;;;;;;;2.47;1.90;;;3.90;1.00;;;;;;6160366;23;20721;-90
2023/05/03 01:55:05;;;;;;;1.70;1.60;;;3.90;1.00;;;;;;6160233;23;20155;-88
2023/05/03 01:57:31;;;;;;;2.83;1.80;;;3.70;1.00;;;;;;6160451;23;20264;-90
2023/05/03 01:59:56;;;;;;;1.93;1.80;;;3.70;1.00;;;;;;6160157;23;20163;-89
2023/05/03 02:02:22;;;;;;;2.37;1.80;;;3.90;1.00;;;;;;6159977;23;20179;-88
2023/05/03 02:04:48;;;;;;;3.80;1.80;;;4.20;1.00;;;;;;6160323;23;20214;-89
2023/05/03 02:07:14;;;;;;;3.60;2.00;;;4.00;1.00;;;;;;6160402;23;20159;-88
2023/05/03 02:09:40;;;;;;;3.20;2.07;;;3.60;1.00;;;;;;6186297;23;20185;-88
2023/05/03 02:12:05;;;;;;;4.07;2.13;;;3.30;1.00;;;;;;6159944;23;20181;-90
2023/05/03 02:14:31;;;;;;;2.53;1.80;;;3.30;1.00;;;;;;6159916;23;20155;-88
2023/05/03 02:16:57;;;;;;;2.27;1.90;;;3.50;1.00;;;;;;6159926;23;20234;-88
2023/05/03 02:19:23;;;;;;;3.00;1.90;;;3.60;1.00;;;;;;6155515;23;20246;-89
2023/05/03 02:21:49;;;;;;;2.97;1.90;;;3.70;1.00;;;;;;6154012;23;20218;-89
2023/05/03 02:24:15;;;;;;;2.67;2.17;;;3.80;1.00;;;;;;6154320;23;20197;-90
2023/05/03 02:26:41;;;;;;;2.93;1.90;;;4.00;1.00;;;;;;6154151;23;20159;-89
2023/05/03 02:29:06;;;;;;;2.83;1.97;;;4.20;1.00;;;;;;6154104;23;20187;-90
2023/05/03 02:31:32;;;;;;;2.10;1.60;;;4.30;1.00;;;;;;6154138;23;20269;-90
2023/05/03 02:33:57;;;;;;;3.17;1.90;;;4.40;1.00;;;;;;6154232;23;20163;-90
2023/05/03 02:36:23;;;;;;;2.10;1.90;;;4.30;1.00;;;;;;6154244;23;20175;-89
2023/05/03 02:38:48;;;;;;;2.67;1.80;;;4.30;1.00;;;;;;6180273;23;20580;-90
2023/05/03 02:41:14;;;;;;;1.67;1.50;;;4.00;1.00;;;;;;6154704;23;20186;-89
2023/05/03 02:43:39;;;;;;;3.17;1.83;;;3.90;1.00;;;;;;6154436;23;20358;-89
2023/05/03 02:46:05;;;;;;;2.70;2.07;;;4.00;1.00;;;;;;6154897;23;20166;-89
2023/05/03 02:48:30;;;;;;;2.97;2.00;;;4.00;1.00;;;;;;6181028;23;20206;-89
2023/05/03 02:50:56;;;;;;;3.53;1.90;;;4.00;1.00;;;;;;6180501;23;20157;-89
2023/05/03 02:53:22;;;;;;;3.57;2.00;;;4.00;1.00;;;;;;6155106;23;20151;-90
2023/05/03 02:55:48;;;;;;;3.07;2.10;;;4.00;1.00;;;;;;6154680;23;20156;-89
2023/05/03 02:58:14;;;;;;;2.70;1.97;;;4.10;1.00;;;;;;6154213;23;20564;-89
2023/05/03 03:00:40;;;;;;;1.80;1.70;;;3.80;1.00;;;;;;6154876;23;20159;-90
2023/05/03 03:03:06;;;;;;;3.83;2.30;;;3.70;1.00;;;;;;6154450;23;20230;-89
2023/05/03 03:05:32;;;;;;;3.83;2.27;;;3.90;1.00;;;;;;6154748;23;20217;-90
2023/05/03 03:07:57;;;;;;;3.43;2.60;;;3.80;1.00;;;;;;6154549;23;20162;-89
2023/05/03 03:10:23;;;;;;;2.07;1.87;;;3.60;1.00;;;;;;6154543;23;20194;-89
2023/05/03 03:12:48;;;;;;;3.73;2.07;;;3.10;1.00;;;;;;6154631;23;20257;-89
2023/05/03 03:15:14;;;;;;;3.30;2.37;;;2.80;1.00;;;;;;6155233;23;20245;-89
2023/05/03 03:17:40;;;;;;;3.63;2.27;;;2.90;1.00;;;;;;6155138;23;20159;-90
2023/05/03 03:20:12;;;;;;;2.37;2.13;;;2.60;1.00;;;;;;6155222;23;20155;-90
2023/05/03 03:22:38;;;;;;;3.17;2.07;;;2.20;1.00;;;;;;6155374;23;20183;-89
2023/05/03 03:25:05;;;;;;;2.47;2.17;;;2.10;1.00;;;;;;6155169;23;20159;-89
2023/05/03 03:27:31;;;;;;;3.83;2.47;;;2.40;1.00;;;;;;6180466;23;20162;-89
2023/05/03 03:29:57;;;;;;;4.47;2.57;;;2.30;1.00;;;;;;6180424;23;20174;-89
2023/05/03 03:32:22;;;;;;;3.90;2.37;;;2.30;1.00;;;;;;6154109;23;20183;-89
2023/05/03 03:34:48;;;;;;;7.60;2.80;;;2.40;1.00;;;;;;6154610;23;20159;-90
2023/05/03 03:37:13;;;;;;;3.73;2.10;;;2.60;1.00;;;;;;6180620;23;20551;-89
2023/05/03 03:39:39;;;;;;;2.87;1.90;;;2.50;1.00;;;;;;6155178;23;20166;-89
2023/05/03 03:42:06;;;;;;;4.90;2.30;;;2.30;1.00;;;;;;6180975;23;20607;-89
2023/05/03 03:44:32;;;;;;;3.23;2.53;;;2.20;1.00;;;;;;6181487;23;20151;-89
2023/05/03 03:46:57;;;;;;;4.70;2.63;;;2.00;1.00;;;;;;6154342;23;20197;-90
2023/05/03 03:49:23;;;;;;;4.00;2.80;;;2.20;1.00;;;;;;6181006;23;20686;-90
2023/05/03 03:51:57;;;;;;;2.37;2.17;;;2.50;1.00;;;;;;6154826;23;20678;-88
2023/05/03 03:54:23;;;;;;;3.50;2.33;;;2.60;1.00;;;;;;6151963;23;20158;-88
2023/05/03 03:56:49;;;;;;;3.73;2.50;;;2.50;1.00;;;;;;6151118;23;20163;-90
2023/05/03 03:59:15;;;;;;;2.93;2.50;;;2.40;1.00;;;;;;6151215;23;20194;-89
2023/05/03 04:01:40;;;;;;;3.67;2.60;;;2.00;1.00;;;;;;6177806;23;20183;-90
2023/05/03 04:04:06;;;;;;;3.90;2.57;;;1.60;1.00;;;;;;6177411;23;20159;-88
2023/05/03 04:06:32;;;;;;;3.30;2.60;;;1.60;48.20;;;;;;6177756;23;20162;-89
2023/05/03 04:08:57;;;;;;;3.10;2.80;;;1.90;49.50;;;;;;6150925;23;20698;-91
2023/05/03 04:11:23;;;;;;;3.63;2.43;;;2.30;50.80;;;;;;6151358;23;20175;-88
2023/05/03 04:13:49;;;;;;;3.23;2.70;;;2.60;1.00;;;;;;6150963;23;20158;-91
2023/05/03 04:16:15;;;;;;;3.33;2.73;;;2.80;1.00;;;;;;6151057;23;20169;-87
2023/05/03 04:18:41;;;;;;;3.90;2.87;;;3.00;1.00;;;;;;6150720;23;20500;-88
2023/05/03 04:21:07;;;;;;;2.87;2.57;;;2.80;1.00;;;;;;6151025;23;20183;-89
2023/05/03 04:23:32;;;;;;;3.33;2.83;;;2.90;1.00;;;;;;6152567;23;20163;-90
2023/05/03 04:25:58;;;;;;;4.07;3.07;;;2.80;1.00;;;;;;6154998;23;20167;-90
2023/05/03 04:28:25;;;;;;;3.80;3.30;;;2.70;1.00;;;;;;6156133;23;20741;-89
2023/05/03 04:30:52;;;;;;;4.70;3.13;;;2.60;1.00;;;;;;6153723;23;20155;-89
2023/05/03 04:33:18;;;;;;;5.37;2.97;;;2.60;1.00;;;;;;6157158;23;20237;-88
2023/05/03 04:35:44;;;;;;;5.13;3.37;;;2.40;1.00;;;;;;6158522;23;20599;-87
2023/05/03 04:38:10;;;;;;;4.23;2.90;;;2.50;1.00;;;;;;6185099;23;20139;-87
2023/05/03 04:40:36;;;;;;;3.90;2.83;;;2.80;1.00;;;;;;6158547;23;20155;-87
2023/05/03 04:43:02;;;;;;;3.37;2.83;;;3.10;1.00;;;;;;6158674;23;20175;-89
2023/05/03 04:45:27;;;;;;;3.17;2.87;;;3.40;1.00;;;;;;6158626;23;20181;-88
2023/05/03 04:47:53;;;;;;;3.97;2.80;;;3.50;1.00;;;;;;6158840;23;20158;-89
2023/05/03 04:50:18;;;;;;;3.17;2.80;;;3.60;1.00;;;;;;6159654;23;20273;-88
2023/05/03 04:52:44;;;;;;;5.20;3.30;;;3.60;1.00;;;;;;6158608;23;20178;-88
2023/05/03 04:55:10;;;;;;;4.67;3.30;;;3.80;1.00;;;;;;6158549;23;20161;-88
2023/05/03 04:57:35;;;;;;;3.87;2.93;;;4.00;1.00;;;;;;6158678;23;20614;-88
2023/05/03 05:00:01;;;;;;;3.73;3.00;;;4.10;1.00;;;;;;6158787;23;20167;-89
2023/05/03 05:02:27;;;;;;;3.03;2.70;;;4.60;1.00;;;;;;6158298;23;20186;-89
2023/05/03 05:04:53;;;;;;;3.37;2.47;;;5.60;1.00;;;;;;6158905;23;20234;-89
2023/05/03 05:07:19;;;;;;;4.53;2.60;;;7.40;1.00;;;;;;6158635;23;20182;-90
2023/05/03 05:09:44;;;;;;;3.90;2.60;;;7.90;1.00;;;;;;6158392;23;20171;-90
2023/05/03 05:12:10;;;;;;;3.53;2.47;;;8.90;1.00;;;;;;6158896;23;20262;-90
2023/05/03 05:14:36;;;;;;;4.00;2.87;;;10.10;1.00;;;;;;6158319;23;20505;-88
2023/05/03 05:17:01;;;;;;;2.97;2.50;;;11.30;1.00;;;;;;6158568;23;20170;-88
2023/05/03 05:19:27;;;;;;;3.93;2.50;;;11.90;1.00;;;;;;6158400;23;20530;-88
2023/05/03 05:21:52;;;;;;;2.77;2.37;;;12.60;1.00;;;;;;6158317;23;20182;-89
2023/05/03 05:24:18;;;;;;;4.22;2.75;;;13.30;1.00;;;;;;6184936;23;20151;-89
2023/05/03 05:26:44;;;;;;;4.18;2.80;;;13.80;1.00;;;;;;6160564;23;20162;-89
2023/05/03 05:29:09;;;;;;;3.63;2.45;;;14.50;1.00;;;;;;6160344;23;20182;-88
2023/05/03 05:31:35;;;;;;;5.07;3.08;;;14.80;1.00;;;;;;6160561;23;20185;-87
2023/05/03 05:34:02;;;;;;;4.82;3.22;;;15.20;1.00;;;;;;6160511;23;20500;-90
2023/05/03 05:36:29;;;;;;;3.55;2.78;;;16.90;1.00;;;;;;6160470;23;20619;-88
2023/05/03 05:38:55;;;;;;;5.88;3.20;;;16.40;1.00;;;;;;6160535;23;20167;-88
2023/05/03 05:41:20;;;;;;;4.13;3.10;;;16.30;1.00;;;;;;6160675;23;20182;-88
2023/05/03 05:43:46;;;;;;;3.95;3.17;;;16.50;1.00;;;;;;6160659;23;20186;-89
2023/05/03 05:46:11;;;;;;;6.10;3.00;;;16.80;1.00;;;;;;6160372;23;20159;-88
2023/05/03 05:48:38;;;;;;;5.65;3.40;;;17.40;1.00;;;;;;6160274;23;20201;-88
2023/05/03 05:51:04;;;;;;;5.57;3.00;;;16.60;1.00;;;;;;6160282;23;20203;-88
2023/05/03 05:53:30;;;;;;;9.65;3.72;;;17.40;1.00;;;;;;6160024;23;20219;-89
2023/05/03 05:55:56;;;;;;;9.27;3.97;;;17.60;1.00;;;;;;6159004;23;20257;-88
2023/05/03 05:58:21;;;;;;;9.65;4.07;;;16.90;1.00;;;;;;6160034;23;20161;-88
2023/05/03 06:00:47;;;;;;;6.22;3.58;;;17.70;1.00;;;;;;6135106;23;20586;-91
2023/05/03 06:03:14;;;;;;;7.18;3.72;;;17.50;1.00;;;;;;6159858;23;20159;-89
2023/05/03 06:05:40;;;;;;;5.35;3.70;;;17.30;1.00;;;;;;6135522;23;20250;-89
2023/05/03 06:08:06;;;;;;;3.92;3.10;;;17.70;1.00;;;;;;6159751;23;20673;-89
2023/05/03 06:10:32;;;;;;;4.65;3.08;;;18.10;1.00;;;;;;6135752;23;20162;-89
2023/05/03 06:12:59;;;;;;;4.47;2.88;;;19.60;1.00;;;;;;6159918;23;20175;-89
2023/05/03 06:15:25;;;;;;;3.88;3.03;;;19.60;1.00;;;;;;6135699;23;20642;-89
2023/05/03 06:17:52;;;;;;;3.92;3.10;;;19.70;1.00;;;;;;6160066;23;20315;-89
2023/05/03 06:20:17;;;;;;;6.10;2.78;;;19.90;1.00;;;;;;6160363;23;20476;-89
2023/05/03 06:22:43;;;;;;;3.33;2.80;;;19.80;1.00;;;;;;6159840;23;20200;-89
2023/05/03 06:25:13;;;;;;;5.43;3.25;;;20.00;1.00;;;;;;6160207;23;20210;-90
2023/05/03 06:27:38;;;;;;;5.43;3.33;;;20.20;1.00;;;;;;6159505;23;20166;-89
2023/05/03 06:30:05;;;;;;;5.43;2.88;;;19.20;1.00;;;;;;6159315;23;20630;-89
2023/05/03 06:32:30;;;;;;;4.90;2.78;;;19.10;1.00;;;;;;6159445;23;20641;-89
2023/05/03 06:34:58;;;;;;;3.45;2.65;;;18.50;1.00;;;;;;6134859;23;20155;-89
2023/05/03 06:37:25;;;;;;;4.65;2.90;;;19.20;1.00;;;;;;6158399;23;20170;-89
2023/05/03 06:39:50;;;;;;;4.47;2.88;;;21.00;1.00;;;;;;6158784;23;20172;-89
2023/05/03 06:42:16;;;;;;;5.95;3.17;;;20.20;1.00;;;;;;6184809;23;20166;-89
2023/05/03 06:44:42;;;;;;;5.30;2.78;;;20.30;1.00;;;;;;6158337;23;20151;-90
2023/05/03 06:47:07;;;;;;;2.97;2.67;;;20.10;1.00;;;;;;6158657;23;20166;-90
2023/05/03 06:49:33;;;;;;;5.22;2.60;;;20.50;1.00;;;;;;6158457;23;20737;-89
2023/05/03 06:51:59;;;;;;;4.00;2.67;;;20.20;1.00;;;;;;6157973;23;20182;-89
2023/05/03 06:54:24;;;;;;;5.65;3.30;;;21.20;1.00;;;;;;6185311;23;20478;-88
2023/05/03 06:56:50;;;;;;;2.85;2.47;;;21.50;1.00;;;;;;6159365;23;20158;-91
2023/05/03 06:59:16;;;;;;;3.15;2.45;;;19.80;1.00;;;;;;6156445;23;20163;-90
2023/05/03 07:01:42;;;;;;;3.30;2.47;;;21.00;1.00;;;;;;6159648;23;20179;-90
2023/05/03 07:04:07;;;;;;;3.92;2.20;;;21.20;1.00;;;;;;6186265;23;20155;-89
2023/05/03 07:06:33;;;;;;;4.38;2.42;;;21.90;1.00;;;;;;6159591;23;20503;-89
2023/05/03 07:08:58;;;;;;;5.80;2.60;;;20.10;1.00;;;;;;6159301;23;20187;-89
2023/05/03 07:11:24;;;;;;;4.07;2.00;;;18.40;1.00;;;;;;6159179;23;20732;-89
2023/05/03 07:13:50;;;;;;;4.65;2.70;;;19.10;1.00;;;;;;6157900;23;20454;-89
2023/05/03 07:16:20;;;;;;;4.65;2.60;;;17.30;1.00;;;;;;6156743;23;20166;-88
2023/05/03 07:18:46;;;;;;;4.28;2.47;;;15.40;1.00;;;;;;6184535;23;20226;-89
2023/05/03 07:21:12;;;;;;;5.28;2.90;;;14.30;1.00;;;;;;6158572;23;20654;-89
2023/05/03 07:23:39;;;;;;;3.65;1.65;;;13.90;1.00;;;;;;6159190;23;20294;-88
2023/05/03 07:26:04;;;;;;;5.53;1.80;;;11.60;1.00;;;;;;6159033;23;20488;-89
2023/05/03 07:28:30;;;;;;;4.22;2.00;;;12.10;1.00;;;;;;6157410;23;20179;-89
2023/05/03 07:30:56;;;;;;;2.13;1.48;;;12.40;1.00;;;;;;6158073;23;20163;-88
2023/05/03 07:33:22;;;;;;;2.80;1.42;;;12.30;1.00;;;;;;6158838;23;20155;-89
2023/05/03 07:35:49;;;;;;;4.28;1.88;;;12.10;1.00;;;;;;6158606;23;20167;-88
2023/05/03 07:38:15;;;;;;;6.85;1.90;;;12.00;1.00;;;;;;6158721;23;20166;-90
2023/05/03 07:40:47;;;;;;;2.75;1.48;;;12.20;1.00;;;;;;6158285;23;20155;-89
2023/05/03 07:43:15;;;;;;;3.75;1.70;;;11.80;1.00;;;;;;6158262;23;20147;-87
2023/05/03 07:45:41;;;;;;;5.78;1.70;;;12.90;1.00;;;;;;6189961;23;20165;-88
2023/05/03 07:48:26;;;;;;;4.25;1.60;;;12.30;1.00;;;;;;6158722;23;20238;-88
2023/05/03 07:50:51;;;;;;;4.57;1.42;;;11.70;1.00;;;;;;6159210;23;20151;-88
2023/05/03 07:53:17;;;;;;;3.15;1.40;;;11.90;1.00;;;;;;6159621;23;20610;-88
2023/05/03 07:55:42;;;;;;;4.65;1.38;;;11.20;1.00;;;;;;6159147;23;20206;-89
2023/05/03 07:58:08;;;;;;;4.60;1.50;;;11.10;1.00;;;;;;6159364;23;20166;-89
2023/05/03 08:00:37;;;;;;;4.03;1.52;;;11.90;1.00;;;;;;6176077;23;20320;-95
2023/05/03 08:03:05;;;;;;;5.78;1.45;;;11.30;1.00;;;;;;6159335;23;20226;-95
2023/05/03 08:05:36;;;;;;;3.75;1.40;;;11.70;1.00;;;;;;6210894;23;20178;-92
2023/05/03 08:08:05;;;;;;;3.25;1.33;;;11.80;1.00;;;;;;6186009;23;20134;-91
2023/05/03 08:10:35;;;;;;;4.85;1.55;;;12.30;1.00;;;;;;6187408;23;20159;-94
2023/05/03 08:13:00;;;;;;;4.90;1.63;;;12.10;1.00;;;;;;6187313;23;20159;-95
2023/05/03 08:15:26;;;;;;;3.28;1.65;;;10.90;1.00;;;;;;6187481;23;20189;-95
2023/05/03 08:17:52;;;;;;;4.97;1.40;;;10.50;1.00;;;;;;6187470;23;20139;-96
2023/05/03 08:20:18;;;;;;;2.83;1.30;;;11.10;1.00;;;;;;6187489;23;20198;-94
2023/05/03 08:22:45;;;;;;;2.20;1.37;;;10.80;1.00;;;;;;6187071;23;20236;-92
2023/05/03 08:25:11;;;;;;;4.67;1.50;;;10.30;1.00;;;;;;6187491;23;20135;-94
2023/05/03 08:27:37;;;;;;;3.30;1.45;;;11.90;1.00;;;;;;6187707;23;20140;-94
2023/05/03 08:30:03;;;;;;;4.57;1.48;;;11.80;1.00;;;;;;6185691;23;20186;-93
2023/05/03 08:32:30;;;;;;;5.32;1.60;;;11.40;1.00;;;;;;6186878;23;20163;-93
2023/05/03 08:35:06;;;;;;;3.55;1.45;;;12.60;1.00;;;;;;6187470;23;20195;-93
2023/05/03 08:38:19;;;;;;;3.20;1.48;;;11.90;1.00;;;;;;6185343;23;20222;-90
2023/05/03 09:04:08;;;;;;;4.50;1.45;;;10.70;1.00;;;;;;6190749;23;20212;-91
2023/05/03 09:06:35;;;;;;;2.22;1.45;;;11.90;1.00;;;;;;6160384;23;20505;-89
2023/05/03 09:09:44;;;;;;;5.38;1.83;;;11.50;1.00;;;;;;6158204;23;20186;-91
2023/05/03 09:12:35;;;;;;;4.25;1.83;;;11.00;1.00;;;;;;6185394;23;20174;-88
2023/05/03 09:15:02;;;;;;;4.47;1.60;;;10.90;1.00;;;;;;6159099;23;20154;-88
2023/05/03 09:17:28;;;;;;;3.92;1.60;;;10.40;1.00;;;;;;6159317;23;20182;-88
2023/05/03 09:19:55;;;;;;;3.97;1.65;;;10.50;1.00;;;;;;6158413;23;20622;-90
2023/05/03 09:22:32;;;;;;;3.43;1.90;;;10.80;1.00;;;;;;6158647;23;20588;-88
2023/05/03 09:24:59;;;;;;;3.80;1.75;;;10.90;1.00;;;;;;6185479;23;20135;-88
2023/05/03 09:27:26;;;;;;;5.20;1.50;;;10.70;1.00;;;;;;6158788;23;20226;-87
2023/05/03 09:29:54;;;;;;;3.45;1.50;;;11.10;1.00;;;;;;6157867;23;20217;-88
2023/05/03 09:32:23;;;;;;;5.13;1.80;;;11.10;1.00;;;;;;6158393;23;20222;-89
2023/05/03 09:34:49;;;;;;;3.37;1.40;;;10.80;1.00;;;;;;6158585;23;20661;-87
2023/05/03 09:37:15;;;;;;;2.40;1.40;;;10.80;1.00;;;;;;6158809;23;20253;-89
2023/05/03 09:39:44;;;;;;;5.00;1.58;;;11.00;1.00;;;;;;6158988;23;20163;-88
2023/05/03 09:42:16;;;;;;;3.37;1.80;;;11.40;1.00;;;;;;6159243;23;20182;-88
2023/05/03 09:44:43;;;;;;;5.77;2.10;;;11.10;1.00;;;;;;6158852;23;20156;-88
2023/05/03 09:47:10;;;;;;;5.93;2.60;;;10.70;1.00;;;;;;6158318;23;20170;-88
2023/05/03 09:49:36;;;;;;;2.40;1.37;;;11.10;1.00;;;;;;6159191;23;20262;-88
2023/05/03 09:52:03;;;;;;;3.80;1.70;;;10.90;1.00;;;;;;6152279;23;20175;-88
2023/05/03 09:54:34;;;;;;;2.83;1.70;;;11.10;1.00;;;;;;6155068;23;20655;-90
2023/05/03 09:57:00;;;;;;;4.80;1.70;;;11.00;1.00;;;;;;6158746;23;20147;-90
2023/05/03 09:59:26;;;;;;;3.50;1.57;;;11.00;1.00;;;;;;6157730;23;20545;-90
2023/05/03 10:01:56;;;;;;;2.95;1.52;;;11.90;1.00;;;;;;6156132;23;20193;-88
2023/05/03 10:04:25;;;;;;;3.17;1.73;;;11.20;1.00;;;;;;6148926;23;20158;-90
2023/05/03 10:06:59;;;;;;;2.93;1.67;;;11.10;1.00;;;;;;6150827;23;20557;-91
2023/05/03 10:09:46;;;;;;;13.77;3.03;;;11.50;1.00;;;;;;6127298;23;20183;-89
2023/05/03 14:22:44;;;;;;;5.10;1.90;;;12.90;1.00;;;;;;6152101;23;20483;-85
2023/05/03 14:25:10;;;;;;;5.30;2.00;;;13.90;1.00;;;;;;6119610;23;20168;-85
2023/05/03 14:27:35;;;;;;;4.50;1.80;;;13.20;1.00;;;;;;6120124;23;20599;-85
2023/05/03 14:30:01;;;;;;;4.25;2.13;;;13.20;1.00;;;;;;6119584;23;20262;-86
2023/05/03 14:32:26;;;;;;;4.72;2.25;;;13.10;1.00;;;;;;6119424;23;20183;-85
2023/05/03 14:34:52;;;;;;;6.10;1.73;;;13.20;1.00;;;;;;6119669;23;20160;-86
2023/05/03 14:37:18;;;;;;;5.07;2.28;;;13.10;1.00;;;;;;6146097;23;20151;-86
2023/05/03 14:39:47;;;;;;;6.65;1.88;;;13.30;1.00;;;;;;6120821;23;20979;-91
2023/05/03 14:42:16;;;;;;;3.42;2.08;;;13.50;1.00;;;;;;6119760;23;20270;-91
2023/05/03 14:44:42;;;;;;;4.75;2.17;;;13.60;1.00;;;;;;6096269;23;20175;-90
2023/05/03 14:47:08;;;;;;;5.57;2.17;;;13.40;1.00;;;;;;6119983;23;20186;-90
2023/05/03 14:49:39;;;;;;;4.95;2.08;;;13.50;1.00;;;;;;6119600;23;20277;-90
2023/05/03 14:52:09;;;;;;;4.18;2.38;;;13.50;1.00;;;;;;6120699;23;20540;-90
2023/05/03 14:54:36;;;;;;;4.68;1.90;;;13.60;1.00;;;;;;6119663;23;20215;-90
2023/05/03 14:57:08;;;;;;;5.05;1.83;;;13.60;1.00;;;;;;6143904;23;20172;-90
2023/05/03 14:59:44;;;;;;;8.23;2.03;;;13.60;1.00;;;;;;6113087;23;20170;-90
2023/05/03 15:06:37;;;;;;;;;;;;;;;;;;;;;
2023/05/03 15:09:14;;;;;;;5.50;1.90;;;14.00;1.00;;;;;;6025603;23;20206;-90
2023/05/03 15:12:30;;;;;;;2.63;1.67;;;13.60;1.00;;;;;;6002262;23;20182;-90
2023/05/03 15:15:35;;;;;;;4.60;1.98;;;13.90;1.00;;;;;;6088092;23;20164;-90
2023/05/03 15:18:17;;;;;;;2.95;1.60;;;13.80;1.00;;;;;;6088356;23;20604;-90
2023/05/03 15:21:00;;;;;;;;;;;;;;;;;;;;;
2023/05/03 15:24:01;;;;;;;4.07;1.60;;;14.30;1.00;;;;;;6116020;23;20578;-90
2023/05/03 15:27:34;;;;;;;4.13;1.70;;;13.90;1.00;;;;;;6089540;23;20164;-89
2023/05/03 15:30:10;;;;;;;3.80;1.77;;;14.00;1.00;;;;;;6023296;23;20652;-88
2023/05/03 15:32:39;;;;;;;3.97;1.70;;;14.10;1.00;;;;;;6091652;23;20188;-89
2023/05/03 15:35:05;;;;;;;3.25;2.05;;;14.70;1.00;;;;;;6116861;23;20231;-86
2023/05/03 15:37:36;;;;;;;6.90;1.92;;;13.80;1.00;;;;;;6115236;23;20152;-87
2023/05/03 15:40:09;;;;;;;2.25;1.55;;;13.90;1.00;;;;;;6115828;23;20251;-86
2023/05/03 15:42:35;;;;;;;5.57;1.95;;;13.80;1.00;;;;;;6115742;23;20179;-86
2023/05/03 15:45:02;;;;;;;4.22;1.77;;;13.80;1.00;;;;;;6089077;23;20613;-86
2023/05/03 15:47:28;;;;;;;3.55;1.70;;;13.80;1.00;;;;;;6088515;23;20188;-86
2023/05/03 15:49:56;;;;;;;4.03;1.92;;;14.10;1.00;;;;;;6089697;23;20192;-88
2023/05/03 15:52:22;;;;;;;3.55;1.85;;;14.00;1.00;;;;;;6089712;23;20180;-87
2023/05/03 15:54:48;;;;;;;4.18;1.80;;;14.00;1.00;;;;;;6090222;23;20697;-87
2023/05/03 15:57:14;;;;;;;3.80;2.13;;;14.00;1.00;;;;;;6089654;23;20198;-87
2023/05/03 15:59:40;;;;;;;23.88;4.50;;;13.90;1.00;;;;;;6089915;23;20292;-87
2023/05/03 16:02:06;;;;;;;6.57;1.75;;;13.80;1.00;;;;;;6115929;23;20226;-87
2023/05/03 16:04:31;;;;;;;7.43;2.20;;;13.70;1.00;;;;;;6115812;23;20374;-87
2023/05/03 16:06:57;;;;;;;3.50;1.67;;;13.70;1.00;;;;;;6090148;23;20160;-86
2023/05/03 16:09:23;;;;;;;3.50;1.77;;;13.70;1.00;;;;;;6089055;23;20183;-86
2023/05/03 16:11:48;;;;;;;7.90;5.03;;;13.60;1.00;;;;;;6089722;23;20190;-86
2023/05/03 16:14:14;;;;;;;3.75;2.83;;;13.60;1.00;;;;;;6089311;23;20546;-86
2023/05/03 16:16:40;;;;;;;4.75;1.90;;;13.60;1.00;;;;;;6089730;23;20507;-86
2023/05/03 16:19:07;;;;;;;3.72;1.38;;;14.30;1.00;;;;;;6089444;23;20168;-86
2023/05/03 16:21:33;;;;;;;3.75;1.70;;;13.50;1.00;;;;;;6089277;23;20188;-86
2023/05/03 16:23:58;;;;;;;4.93;1.63;;;13.40;1.00;;;;;;6090101;23;20604;-86
2023/05/03 16:26:24;;;;;;;3.72;1.80;;;13.40;1.00;;;;;;6089485;23;20615;-87
2023/05/03 16:28:50;;;;;;;3.08;1.90;;;13.40;1.00;;;;;;6089768;23;20648;-85
2023/05/03 16:31:16;;;;;;;3.50;1.90;;;13.30;1.00;;;;;;6089678;23;20631;-86
2023/05/03 16:33:42;;;;;;;3.03;1.40;;;13.20;1.00;;;;;;6115492;23;20159;-86
2023/05/03 16:36:08;;;;;;;2.75;1.65;;;13.30;1.00;;;;;;6089416;23;20156;-87
2023/05/03 16:38:34;;;;;;;3.47;1.65;;;13.20;1.00;;;;;;6088959;23;20164;-85
2023/05/03 16:41:01;;;;;;;3.28;1.48;;;13.20;1.00;;;;;;6089603;23;20251;-87
2023/05/03 16:43:26;;;;;;;3.13;1.33;;;13.20;1.00;;;;;;6089407;23;20170;-86
2023/05/03 16:45:58;;;;;;;5.22;1.83;;;13.10;1.00;;;;;;6089838;23;20247;-86
2023/05/03 16:48:31;;;;;;;3.50;1.42;;;13.10;1.00;;;;;;6114770;23;20248;-87
2023/05/03 16:50:57;;;;;;;3.75;1.50;;;13.00;1.00;;;;;;6115123;23;20491;-86
2023/05/03 16:53:26;;;;;;;4.13;1.52;;;12.90;1.00;;;;;;6090017;23;20192;-87
2023/05/03 16:55:52;;;;;;;4.90;1.98;;;12.80;1.00;;;;;;6089580;23;20167;-86
2023/05/03 16:58:18;;;;;;;3.00;1.83;;;12.80;1.00;;;;;;6115821;23;20157;-87
2023/05/03 17:00:44;;;;;;;4.40;1.75;;;12.70;1.00;;;;;;6090273;23;20165;-85
2023/05/03 17:03:10;;;;;;;3.28;1.63;;;12.60;1.00;;;;;;6090266;23;20180;-86
2023/05/03 17:05:36;;;;;;;4.60;2.33;;;12.50;1.00;;;;;;6116691;23;20160;-87
2023/05/03 17:08:02;;;;;;;4.57;1.67;;;12.40;1.00;;;;;;6090575;23;20203;-86
2023/05/03 17:10:30;;;;;;;4.80;1.98;;;12.30;1.00;;;;;;6090235;23;20189;-88
2023/05/03 17:12:57;;;;;;;4.45;1.67;;;12.20;1.00;;;;;;6089905;23;20176;-85
2023/05/03 17:15:23;;;;;;;4.32;2.10;;;12.20;1.00;;;;;;6090017;23;20183;-86
2023/05/03 17:17:50;;;;;;;4.03;2.10;;;12.10;1.00;;;;;;6088889;23;20346;-87
2023/05/03 17:20:16;;;;;;;4.60;1.83;;;12.00;1.00;;;;;;6089612;23;20179;-85
2023/05/03 17:22:42;;;;;;;3.80;1.77;;;12.00;1.00;;;;;;6089587;23;20184;-87
2023/05/03 17:25:08;;;;;;;4.95;2.05;;;12.00;1.00;;;;;;6089101;23;20168;-86
2023/05/03 17:27:35;;;;;;;4.90;2.20;;;12.00;1.00;;;;;;6086768;23;20168;-86
2023/05/03 17:30:02;;;;;;;4.72;2.00;;;11.90;1.00;;;;;;6087402;23;20183;-86
2023/05/03 17:32:27;;;;;;;3.25;1.75;;;11.80;1.00;;;;;;6087523;23;20380;-86
2023/05/03 17:34:53;;;;;;;5.15;2.08;;;11.70;1.00;;;;;;6086811;23;20197;-85
2023/05/03 17:37:19;;;;;;;4.72;1.80;;;11.90;1.00;;;;;;6087733;23;20210;-86
2023/05/03 17:39:44;;;;;;;3.53;1.93;;;11.50;1.00;;;;;;6087746;23;20619;-84
